sensor_id;sensor_type;location;lat;lon;timestamp;temperature;humidity
16767;DHT22;8501;49.926;8.404;2023-05-10T00:00:13;15.30;99.90
16767;DHT22;8501;49.926;8.404;2023-05-10T00:02:38;15.30;99.90
16767;DHT22;8501;49.926;8.404;2023-05-10T00:05:05;15.30;99.90
16767;DHT22;8501;49.926;8.404;2023-05-10T00:07:30;15.30;99.90
16767;DHT22;8501;49.926;8.404;2023-05-10T00:09:56;15.20;99.90
16767;DHT22;8501;49.926;8.404;2023-05-10T00:12:22;15.30;99.90
16767;DHT22;8501;49.926;8.404;2023-05-10T00:14:47;15.20;99.90
16767;DHT22;8501;49.926;8.404;2023-05-10T00:17:13;15.20;99.90
16767;DHT22;8501;49.926;8.404;2023-05-10T00:19:39;15.20;99.90
16767;DHT22;8501;49.926;8.404;2023-05-10T00:22:05;15.20;99.90
16767;DHT22;8501;49.926;8.404;2023-05-10T00:24:30;15.20;99.90
16767;DHT22;8501;49.926;8.404;2023-05-10T00:26:56;15.30;99.90
16767;DHT22;8501;49.926;8.404;2023-05-10T00:29:21;15.20;99.90
16767;DHT22;8501;49.926;8.404;2023-05-10T00:31:47;15.10;99.90
16767;DHT22;8501;49.926;8.404;2023-05-10T00:34:12;15.20;99.90
16767;DHT22;8501;49.926;8.404;2023-05-10T00:36:38;15.10;99.90
16767;DHT22;8501;49.926;8.404;2023-05-10T00:39:03;15.10;99.90
16767;DHT22;8501;49.926;8.404;2023-05-10T00:41:29;15.10;99.90
16767;DHT22;8501;49.926;8.404;2023-05-10T00:43:57;15.10;99.90
16767;DHT22;8501;49.926;8.404;2023-05-10T00:46:23;15.10;99.90
16767;DHT22;8501;49.926;8.404;2023-05-10T00:48:50;15.10;99.90
16767;DHT22;8501;49.926;8.404;2023-05-10T00:51:15;15.10;99.90
16767;DHT22;8501;49.926;8.404;2023-05-10T00:53:41;15.10;99.90
16767;DHT22;8501;49.926;8.404;2023-05-10T00:56:06;15.10;99.90
16767;DHT22;8501;49.926;8.404;2023-05-10T00:58:32;15.00;99.90
16767;DHT22;8501;49.926;8.404;2023-05-10T01:00:58;15.00;99.90
16767;DHT22;8501;49.926;8.404;2023-05-10T01:03:25;15.10;99.90
16767;DHT22;8501;49.926;8.404;2023-05-10T01:05:51;15.10;99.90
16767;DHT22;8501;49.926;8.404;2023-05-10T01:08:17;15.10;99.90
16767;DHT22;8501;49.926;8.404;2023-05-10T01:10:43;15.10;99.90
16767;DHT22;8501;49.926;8.404;2023-05-10T01:13:09;15.10;99.90
16767;DHT22;8501;49.926;8.404;2023-05-10T01:15:35;15.00;99.90
16767;DHT22;8501;49.926;8.404;2023-05-10T01:18:02;15.00;99.90
16767;DHT22;8501;49.926;8.404;2023-05-10T01:20:35;15.00;99.90
16767;DHT22;8501;49.926;8.404;2023-05-10T01:23:16;15.00;99.90
16767;DHT22;8501;49.926;8.404;2023-05-10T01:26:33;14.90;99.90
16767;DHT22;8501;49.926;8.404;2023-05-10T01:35:00;14.90;99.90
16767;DHT22;8501;49.926;8.404;2023-05-10T01:37:41;14.90;99.90
16767;DHT22;8501;49.926;8.404;2023-05-10T01:40:20;15.00;99.90
16767;DHT22;8501;49.926;8.404;2023-05-10T01:43:01;14.90;99.90
16767;DHT22;8501;49.926;8.404;2023-05-10T01:45:34;15.00;99.90
16767;DHT22;8501;49.926;8.404;2023-05-10T01:48:11;15.00;99.90
16767;DHT22;8501;49.926;8.404;2023-05-10T01:50:41;15.00;99.90
16767;DHT22;8501;49.926;8.404;2023-05-10T01:53:08;14.90;99.90
16767;DHT22;8501;49.926;8.404;2023-05-10T01:55:39;14.80;99.90
16767;DHT22;8501;49.926;8.404;2023-05-10T01:58:10;14.90;99.90
16767;DHT22;8501;49.926;8.404;2023-05-10T02:00:40;14.90;99.90
16767;DHT22;8501;49.926;8.404;2023-05-10T02:03:08;14.90;99.90
16767;DHT22;8501;49.926;8.404;2023-05-10T02:05:35;14.90;99.90
16767;DHT22;8501;49.926;8.404;2023-05-10T02:08:03;14.80;99.90
16767;DHT22;8501;49.926;8.404;2023-05-10T02:10:30;14.80;99.90
16767;DHT22;8501;49.926;8.404;2023-05-10T02:12:58;14.80;99.90
16767;DHT22;8501;49.926;8.404;2023-05-10T02:15:25;14.80;99.90
16767;DHT22;8501;49.926;8.404;2023-05-10T02:17:54;14.80;99.90
16767;DHT22;8501;49.926;8.404;2023-05-10T02:20:20;14.80;99.90
16767;DHT22;8501;49.926;8.404;2023-05-10T02:22:49;14.80;99.90
16767;DHT22;8501;49.926;8.404;2023-05-10T02:25:16;14.80;99.90
16767;DHT22;8501;49.926;8.404;2023-05-10T02:27:43;14.70;99.90
16767;DHT22;8501;49.926;8.404;2023-05-10T02:30:10;14.80;99.90
16767;DHT22;8501;49.926;8.404;2023-05-10T02:32:37;14.70;99.90
16767;DHT22;8501;49.926;8.404;2023-05-10T02:35:03;14.70;99.90
16767;DHT22;8501;49.926;8.404;2023-05-10T02:37:29;14.70;99.90
16767;DHT22;8501;49.926;8.404;2023-05-10T02:39:56;14.70;99.90
16767;DHT22;8501;49.926;8.404;2023-05-10T02:42:29;14.70;99.90
16767;DHT22;8501;49.926;8.404;2023-05-10T02:45:08;14.70;99.90
16767;DHT22;8501;49.926;8.404;2023-05-10T02:47:36;14.70;99.90
16767;DHT22;8501;49.926;8.404;2023-05-10T02:50:02;14.70;99.90
16767;DHT22;8501;49.926;8.404;2023-05-10T02:52:30;14.70;99.90
16767;DHT22;8501;49.926;8.404;2023-05-10T02:55:02;14.80;99.90
16767;DHT22;8501;49.926;8.404;2023-05-10T02:57:33;14.70;99.90
16767;DHT22;8501;49.926;8.404;2023-05-10T03:00:00;14.70;99.90
16767;DHT22;8501;49.926;8.404;2023-05-10T03:02:26;14.70;99.90
16767;DHT22;8501;49.926;8.404;2023-05-10T03:04:52;14.70;99.90
16767;DHT22;8501;49.926;8.404;2023-05-10T03:07:17;14.70;99.90
16767;DHT22;8501;49.926;8.404;2023-05-10T03:09:47;14.70;99.90
16767;DHT22;8501;49.926;8.404;2023-05-10T03:12:18;14.70;99.90
16767;DHT22;8501;49.926;8.404;2023-05-10T03:14:57;14.70;99.90
16767;DHT22;8501;49.926;8.404;2023-05-10T03:20:03;14.60;99.90
16767;DHT22;8501;49.926;8.404;2023-05-10T03:22:47;14.60;99.90
16767;DHT22;8501;49.926;8.404;2023-05-10T03:25:15;14.60;99.90
16767;DHT22;8501;49.926;8.404;2023-05-10T03:27:43;14.60;99.90
16767;DHT22;8501;49.926;8.404;2023-05-10T03:30:11;14.60;99.90
16767;DHT22;8501;49.926;8.404;2023-05-10T03:32:37;14.60;99.90
16767;DHT22;8501;49.926;8.404;2023-05-10T03:35:10;14.70;99.90
16767;DHT22;8501;49.926;8.404;2023-05-10T03:37:36;14.70;99.90
16767;DHT22;8501;49.926;8.404;2023-05-10T03:40:03;14.70;99.90
16767;DHT22;8501;49.926;8.404;2023-05-10T03:42:28;14.70;99.90
16767;DHT22;8501;49.926;8.404;2023-05-10T03:44:54;14.70;99.90
16767;DHT22;8501;49.926;8.404;2023-05-10T03:47:20;14.60;99.90
16767;DHT22;8501;49.926;8.404;2023-05-10T03:49:45;14.60;99.90
16767;DHT22;8501;49.926;8.404;2023-05-10T03:52:11;14.60;99.90
16767;DHT22;8501;49.926;8.404;2023-05-10T03:54:37;14.60;99.90
16767;DHT22;8501;49.926;8.404;2023-05-10T03:57:02;14.60;99.90
16767;DHT22;8501;49.926;8.404;2023-05-10T03:59:28;14.60;99.90
16767;DHT22;8501;49.926;8.404;2023-05-10T04:01:54;14.60;99.90
16767;DHT22;8501;49.926;8.404;2023-05-10T04:04:19;14.60;99.90
16767;DHT22;8501;49.926;8.404;2023-05-10T04:06:46;14.60;99.90
16767;DHT22;8501;49.926;8.404;2023-05-10T04:09:12;14.60;99.90
16767;DHT22;8501;49.926;8.404;2023-05-10T04:11:38;14.60;99.90
16767;DHT22;8501;49.926;8.404;2023-05-10T04:14:03;14.50;99.90
16767;DHT22;8501;49.926;8.404;2023-05-10T04:16:29;14.60;99.90
16767;DHT22;8501;49.926;8.404;2023-05-10T04:18:54;14.60;99.90
16767;DHT22;8501;49.926;8.404;2023-05-10T04:21:20;14.60;99.90
16767;DHT22;8501;49.926;8.404;2023-05-10T04:23:45;14.50;99.90
16767;DHT22;8501;49.926;8.404;2023-05-10T04:26:11;14.60;99.90
16767;DHT22;8501;49.926;8.404;2023-05-10T04:28:37;14.50;99.90
16767;DHT22;8501;49.926;8.404;2023-05-10T04:31:04;14.60;99.90
16767;DHT22;8501;49.926;8.404;2023-05-10T04:33:32;14.60;99.90
16767;DHT22;8501;49.926;8.404;2023-05-10T04:36:00;14.60;99.90
16767;DHT22;8501;49.926;8.404;2023-05-10T04:38:27;14.60;99.90
16767;DHT22;8501;49.926;8.404;2023-05-10T04:40:53;14.60;99.90
16767;DHT22;8501;49.926;8.404;2023-05-10T04:43:18;14.60;99.90
16767;DHT22;8501;49.926;8.404;2023-05-10T04:45:44;14.70;99.90
16767;DHT22;8501;49.926;8.404;2023-05-10T04:48:09;14.60;99.90
16767;DHT22;8501;49.926;8.404;2023-05-10T04:50:35;14.60;99.90
16767;DHT22;8501;49.926;8.404;2023-05-10T04:53:01;14.60;99.90
16767;DHT22;8501;49.926;8.404;2023-05-10T04:55:26;14.60;99.90
16767;DHT22;8501;49.926;8.404;2023-05-10T04:57:52;14.60;99.90
16767;DHT22;8501;49.926;8.404;2023-05-10T05:00:20;14.50;99.90
16767;DHT22;8501;49.926;8.404;2023-05-10T05:02:46;14.60;99.90
16767;DHT22;8501;49.926;8.404;2023-05-10T05:05:12;14.60;99.90
16767;DHT22;8501;49.926;8.404;2023-05-10T05:07:38;14.60;99.90
16767;DHT22;8501;49.926;8.404;2023-05-10T05:10:08;14.60;99.90
16767;DHT22;8501;49.926;8.404;2023-05-10T05:12:34;14.60;99.90
16767;DHT22;8501;49.926;8.404;2023-05-10T05:15:01;14.50;99.90
16767;DHT22;8501;49.926;8.404;2023-05-10T05:17:26;14.50;99.90
16767;DHT22;8501;49.926;8.404;2023-05-10T05:19:52;14.60;99.90
16767;DHT22;8501;49.926;8.404;2023-05-10T05:22:18;14.60;99.90
16767;DHT22;8501;49.926;8.404;2023-05-10T05:24:44;14.50;99.90
16767;DHT22;8501;49.926;8.404;2023-05-10T05:27:10;14.60;99.90
16767;DHT22;8501;49.926;8.404;2023-05-10T05:29:36;14.60;99.90
16767;DHT22;8501;49.926;8.404;2023-05-10T05:32:01;14.60;99.90
16767;DHT22;8501;49.926;8.404;2023-05-10T05:34:27;14.60;99.90
16767;DHT22;8501;49.926;8.404;2023-05-10T05:36:53;14.60;99.90
16767;DHT22;8501;49.926;8.404;2023-05-10T05:39:19;14.60;99.90
16767;DHT22;8501;49.926;8.404;2023-05-10T05:41:44;14.60;99.90
16767;DHT22;8501;49.926;8.404;2023-05-10T05:44:10;14.60;99.90
16767;DHT22;8501;49.926;8.404;2023-05-10T05:46:35;14.60;99.90
16767;DHT22;8501;49.926;8.404;2023-05-10T05:49:01;14.60;99.90
16767;DHT22;8501;49.926;8.404;2023-05-10T05:51:26;14.60;99.90
16767;DHT22;8501;49.926;8.404;2023-05-10T05:53:52;14.60;99.90
16767;DHT22;8501;49.926;8.404;2023-05-10T05:56:18;14.60;99.90
16767;DHT22;8501;49.926;8.404;2023-05-10T05:58:52;14.70;99.90
16767;DHT22;8501;49.926;8.404;2023-05-10T06:01:17;14.70;99.90
16767;DHT22;8501;49.926;8.404;2023-05-10T06:03:43;14.70;99.90
16767;DHT22;8501;49.926;8.404;2023-05-10T06:06:08;14.70;99.90
16767;DHT22;8501;49.926;8.404;2023-05-10T06:08:34;14.70;99.90
16767;DHT22;8501;49.926;8.404;2023-05-10T06:11:00;14.70;99.90
16767;DHT22;8501;49.926;8.404;2023-05-10T06:13:26;14.70;99.90
16767;DHT22;8501;49.926;8.404;2023-05-10T06:15:59;14.70;99.90
16767;DHT22;8501;49.926;8.404;2023-05-10T06:18:25;14.70;99.90
16767;DHT22;8501;49.926;8.404;2023-05-10T06:20:50;14.70;99.90
16767;DHT22;8501;49.926;8.404;2023-05-10T06:23:17;14.70;99.90
16767;DHT22;8501;49.926;8.404;2023-05-10T06:25:42;14.80;99.90
16767;DHT22;8501;49.926;8.404;2023-05-10T06:28:08;14.70;99.90
16767;DHT22;8501;49.926;8.404;2023-05-10T06:30:33;14.70;99.90
16767;DHT22;8501;49.926;8.404;2023-05-10T06:33:00;14.70;99.90
16767;DHT22;8501;49.926;8.404;2023-05-10T06:35:26;14.80;99.90
16767;DHT22;8501;49.926;8.404;2023-05-10T06:37:51;14.80;99.90
16767;DHT22;8501;49.926;8.404;2023-05-10T06:40:18;14.80;99.90
16767;DHT22;8501;49.926;8.404;2023-05-10T06:42:43;14.90;99.90
16767;DHT22;8501;49.926;8.404;2023-05-10T06:45:10;14.90;99.90
16767;DHT22;8501;49.926;8.404;2023-05-10T06:47:36;14.90;99.90
16767;DHT22;8501;49.926;8.404;2023-05-10T06:50:02;14.90;99.90
16767;DHT22;8501;49.926;8.404;2023-05-10T06:52:28;15.00;99.90
16767;DHT22;8501;49.926;8.404;2023-05-10T06:54:53;15.00;99.90
16767;DHT22;8501;49.926;8.404;2023-05-10T06:57:19;15.00;99.90
16767;DHT22;8501;49.926;8.404;2023-05-10T06:59:45;15.00;99.90
16767;DHT22;8501;49.926;8.404;2023-05-10T07:02:11;15.00;99.90
16767;DHT22;8501;49.926;8.404;2023-05-10T07:04:36;15.10;99.90
16767;DHT22;8501;49.926;8.404;2023-05-10T07:07:02;15.10;99.90
16767;DHT22;8501;49.926;8.404;2023-05-10T07:09:28;15.10;99.90
16767;DHT22;8501;49.926;8.404;2023-05-10T07:11:53;15.20;99.90
16767;DHT22;8501;49.926;8.404;2023-05-10T07:14:19;15.20;99.90
16767;DHT22;8501;49.926;8.404;2023-05-10T07:16:44;15.20;99.90
16767;DHT22;8501;49.926;8.404;2023-05-10T07:19:09;15.30;99.90
16767;DHT22;8501;49.926;8.404;2023-05-10T07:21:36;15.30;99.90
16767;DHT22;8501;49.926;8.404;2023-05-10T07:24:01;15.30;99.90
16767;DHT22;8501;49.926;8.404;2023-05-10T07:26:27;15.30;99.90
16767;DHT22;8501;49.926;8.404;2023-05-10T07:28:52;15.40;99.90
16767;DHT22;8501;49.926;8.404;2023-05-10T07:31:18;15.40;99.90
16767;DHT22;8501;49.926;8.404;2023-05-10T07:33:43;15.40;99.90
16767;DHT22;8501;49.926;8.404;2023-05-10T07:36:09;15.40;99.90
16767;DHT22;8501;49.926;8.404;2023-05-10T07:38:34;15.50;99.90
16767;DHT22;8501;49.926;8.404;2023-05-10T07:41:00;15.50;99.90
16767;DHT22;8501;49.926;8.404;2023-05-10T07:43:25;15.50;99.90
16767;DHT22;8501;49.926;8.404;2023-05-10T07:45:51;15.60;99.90
16767;DHT22;8501;49.926;8.404;2023-05-10T07:48:16;15.60;99.90
16767;DHT22;8501;49.926;8.404;2023-05-10T07:50:42;15.60;99.90
16767;DHT22;8501;49.926;8.404;2023-05-10T07:53:07;15.60;99.90
16767;DHT22;8501;49.926;8.404;2023-05-10T07:55:33;15.60;99.90
16767;DHT22;8501;49.926;8.404;2023-05-10T07:57:58;15.60;99.90
16767;DHT22;8501;49.926;8.404;2023-05-10T08:00:26;15.70;99.90
16767;DHT22;8501;49.926;8.404;2023-05-10T08:02:52;15.70;99.90
16767;DHT22;8501;49.926;8.404;2023-05-10T08:05:18;15.70;99.90
16767;DHT22;8501;49.926;8.404;2023-05-10T08:07:43;15.70;99.90
16767;DHT22;8501;49.926;8.404;2023-05-10T08:10:09;15.70;99.90
16767;DHT22;8501;49.926;8.404;2023-05-10T08:12:36;15.70;99.90
16767;DHT22;8501;49.926;8.404;2023-05-10T08:15:02;15.70;99.90
16767;DHT22;8501;49.926;8.404;2023-05-10T08:17:28;15.70;99.90
16767;DHT22;8501;49.926;8.404;2023-05-10T08:19:54;15.70;99.90
16767;DHT22;8501;49.926;8.404;2023-05-10T08:22:19;15.70;99.90
16767;DHT22;8501;49.926;8.404;2023-05-10T08:24:45;15.70;99.90
16767;DHT22;8501;49.926;8.404;2023-05-10T08:27:10;15.70;99.90
16767;DHT22;8501;49.926;8.404;2023-05-10T08:29:36;15.70;99.90
16767;DHT22;8501;49.926;8.404;2023-05-10T08:32:02;15.70;99.90
16767;DHT22;8501;49.926;8.404;2023-05-10T08:34:28;15.70;99.90
16767;DHT22;8501;49.926;8.404;2023-05-10T08:36:53;15.70;99.90
16767;DHT22;8501;49.926;8.404;2023-05-10T08:39:19;15.70;99.90
16767;DHT22;8501;49.926;8.404;2023-05-10T08:41:46;15.70;99.90
16767;DHT22;8501;49.926;8.404;2023-05-10T08:44:13;15.70;99.90
16767;DHT22;8501;49.926;8.404;2023-05-10T08:46:41;15.80;99.90
16767;DHT22;8501;49.926;8.404;2023-05-10T08:49:13;15.80;99.90
16767;DHT22;8501;49.926;8.404;2023-05-10T08:51:45;15.80;99.90
16767;DHT22;8501;49.926;8.404;2023-05-10T08:54:12;15.90;99.90
16767;DHT22;8501;49.926;8.404;2023-05-10T08:56:38;15.90;99.90
16767;DHT22;8501;49.926;8.404;2023-05-10T08:59:03;16.00;99.90
16767;DHT22;8501;49.926;8.404;2023-05-10T09:01:31;16.10;99.90
16767;DHT22;8501;49.926;8.404;2023-05-10T09:03:58;16.10;99.90
16767;DHT22;8501;49.926;8.404;2023-05-10T09:06:24;16.20;99.90
16767;DHT22;8501;49.926;8.404;2023-05-10T09:08:49;16.20;99.90
16767;DHT22;8501;49.926;8.404;2023-05-10T09:11:16;16.30;99.90
16767;DHT22;8501;49.926;8.404;2023-05-10T09:13:42;16.20;99.90
16767;DHT22;8501;49.926;8.404;2023-05-10T09:16:09;16.30;99.90
16767;DHT22;8501;49.926;8.404;2023-05-10T09:18:34;16.30;99.90
16767;DHT22;8501;49.926;8.404;2023-05-10T09:21:00;16.30;99.90
16767;DHT22;8501;49.926;8.404;2023-05-10T09:23:25;16.30;99.90
16767;DHT22;8501;49.926;8.404;2023-05-10T09:26:07;16.30;99.90
16767;DHT22;8501;49.926;8.404;2023-05-10T09:28:34;16.20;99.90
16767;DHT22;8501;49.926;8.404;2023-05-10T09:30:59;16.30;99.90
16767;DHT22;8501;49.926;8.404;2023-05-10T09:33:25;16.30;99.90
16767;DHT22;8501;49.926;8.404;2023-05-10T09:35:52;16.30;99.90
16767;DHT22;8501;49.926;8.404;2023-05-10T09:38:17;16.30;99.90
16767;DHT22;8501;49.926;8.404;2023-05-10T09:40:51;16.30;99.90
16767;DHT22;8501;49.926;8.404;2023-05-10T09:43:20;16.40;99.90
16767;DHT22;8501;49.926;8.404;2023-05-10T09:45:48;16.40;99.90
16767;DHT22;8501;49.926;8.404;2023-05-10T09:48:15;16.40;99.90
16767;DHT22;8501;49.926;8.404;2023-05-10T09:50:41;16.50;99.90
16767;DHT22;8501;49.926;8.404;2023-05-10T09:53:07;16.50;99.90
16767;DHT22;8501;49.926;8.404;2023-05-10T09:58:01;16.60;99.90
16767;DHT22;8501;49.926;8.404;2023-05-10T10:00:28;16.60;99.90
16767;DHT22;8501;49.926;8.404;2023-05-10T10:02:58;16.70;99.90
16767;DHT22;8501;49.926;8.404;2023-05-10T10:05:30;16.70;99.90
16767;DHT22;8501;49.926;8.404;2023-05-10T10:08:00;16.80;99.90
16767;DHT22;8501;49.926;8.404;2023-05-10T10:10:27;16.80;99.90
16767;DHT22;8501;49.926;8.404;2023-05-10T10:12:54;16.80;99.90
16767;DHT22;8501;49.926;8.404;2023-05-10T10:15:21;16.80;99.90
16767;DHT22;8501;49.926;8.404;2023-05-10T10:17:48;16.80;99.90
16767;DHT22;8501;49.926;8.404;2023-05-10T10:20:15;16.80;99.90
16767;DHT22;8501;49.926;8.404;2023-05-10T10:22:40;16.80;99.90
16767;DHT22;8501;49.926;8.404;2023-05-10T10:25:10;16.80;99.90
16767;DHT22;8501;49.926;8.404;2023-05-10T10:27:54;16.70;99.90
16767;DHT22;8501;49.926;8.404;2023-05-10T10:30:28;16.70;99.90
16767;DHT22;8501;49.926;8.404;2023-05-10T10:33:06;16.70;99.90
16767;DHT22;8501;49.926;8.404;2023-05-10T10:35:36;16.70;99.90
16767;DHT22;8501;49.926;8.404;2023-05-10T10:38:02;16.60;99.90
16767;DHT22;8501;49.926;8.404;2023-05-10T10:40:34;16.60;99.90
16767;DHT22;8501;49.926;8.404;2023-05-10T10:43:23;16.60;99.90
16767;DHT22;8501;49.926;8.404;2023-05-10T10:46:15;16.60;99.90
16767;DHT22;8501;49.926;8.404;2023-05-10T10:48:47;16.60;99.90
16767;DHT22;8501;49.926;8.404;2023-05-10T10:51:13;16.50;99.90
16767;DHT22;8501;49.926;8.404;2023-05-10T10:53:40;16.50;99.90
16767;DHT22;8501;49.926;8.404;2023-05-10T10:56:10;16.50;99.90
16767;DHT22;8501;49.926;8.404;2023-05-10T10:58:39;16.50;99.90
16767;DHT22;8501;49.926;8.404;2023-05-10T11:01:16;16.50;99.90
16767;DHT22;8501;49.926;8.404;2023-05-10T11:06:30;16.60;99.90
16767;DHT22;8501;49.926;8.404;2023-05-10T11:09:06;16.60;99.90
16767;DHT22;8501;49.926;8.404;2023-05-10T11:11:31;16.70;99.90
16767;DHT22;8501;49.926;8.404;2023-05-10T11:14:03;16.70;99.90
16767;DHT22;8501;49.926;8.404;2023-05-10T11:16:41;16.70;99.90
16767;DHT22;8501;49.926;8.404;2023-05-10T11:19:09;16.70;99.90
16767;DHT22;8501;49.926;8.404;2023-05-10T11:21:46;16.80;99.90
16767;DHT22;8501;49.926;8.404;2023-05-10T11:24:14;16.90;99.90
16767;DHT22;8501;49.926;8.404;2023-05-10T11:26:40;16.90;99.90
16767;DHT22;8501;49.926;8.404;2023-05-10T11:29:06;16.90;99.90
16767;DHT22;8501;49.926;8.404;2023-05-10T11:31:32;17.00;99.90
16767;DHT22;8501;49.926;8.404;2023-05-10T11:33:59;17.10;99.90
16767;DHT22;8501;49.926;8.404;2023-05-10T11:36:28;17.10;99.90
16767;DHT22;8501;49.926;8.404;2023-05-10T11:38:55;17.20;99.90
16767;DHT22;8501;49.926;8.404;2023-05-10T11:41:22;17.20;99.90
16767;DHT22;8501;49.926;8.404;2023-05-10T11:43:50;17.40;99.90
16767;DHT22;8501;49.926;8.404;2023-05-10T11:46:21;17.50;99.90
16767;DHT22;8501;49.926;8.404;2023-05-10T11:48:49;17.60;99.90
16767;DHT22;8501;49.926;8.404;2023-05-10T11:51:20;17.80;99.90
16767;DHT22;8501;49.926;8.404;2023-05-10T11:53:46;18.00;99.90
16767;DHT22;8501;49.926;8.404;2023-05-10T11:56:11;18.10;99.90
16767;DHT22;8501;49.926;8.404;2023-05-10T11:58:38;18.10;99.90
16767;DHT22;8501;49.926;8.404;2023-05-10T12:01:10;18.10;99.90
16767;DHT22;8501;49.926;8.404;2023-05-10T12:03:37;18.10;99.90
16767;DHT22;8501;49.926;8.404;2023-05-10T12:06:09;18.20;99.90
16767;DHT22;8501;49.926;8.404;2023-05-10T12:09:07;18.20;99.90
16767;DHT22;8501;49.926;8.404;2023-05-10T12:11:37;18.20;99.90
16767;DHT22;8501;49.926;8.404;2023-05-10T12:14:04;18.20;99.90
16767;DHT22;8501;49.926;8.404;2023-05-10T12:16:30;18.20;99.90
16767;DHT22;8501;49.926;8.404;2023-05-10T12:18:57;18.20;99.90
16767;DHT22;8501;49.926;8.404;2023-05-10T12:21:23;18.20;99.90
16767;DHT22;8501;49.926;8.404;2023-05-10T12:23:51;18.20;99.90
16767;DHT22;8501;49.926;8.404;2023-05-10T12:26:17;18.30;99.90
16767;DHT22;8501;49.926;8.404;2023-05-10T12:28:43;18.30;99.90
16767;DHT22;8501;49.926;8.404;2023-05-10T12:31:09;18.40;99.90
16767;DHT22;8501;49.926;8.404;2023-05-10T12:33:39;18.40;99.90
16767;DHT22;8501;49.926;8.404;2023-05-10T12:36:08;18.40;99.90
16767;DHT22;8501;49.926;8.404;2023-05-10T12:41:08;18.40;99.90
16767;DHT22;8501;49.926;8.404;2023-05-10T12:43:35;18.30;99.90
16767;DHT22;8501;49.926;8.404;2023-05-10T12:46:05;18.30;99.90
16767;DHT22;8501;49.926;8.404;2023-05-10T12:48:31;18.20;99.90
16767;DHT22;8501;49.926;8.404;2023-05-10T12:50:57;18.30;99.90
16767;DHT22;8501;49.926;8.404;2023-05-10T12:53:22;18.30;99.90
16767;DHT22;8501;49.926;8.404;2023-05-10T12:55:48;18.30;99.90
16767;DHT22;8501;49.926;8.404;2023-05-10T12:58:14;18.40;99.90
16767;DHT22;8501;49.926;8.404;2023-05-10T13:00:39;18.40;99.90
16767;DHT22;8501;49.926;8.404;2023-05-10T13:03:05;18.40;99.90
16767;DHT22;8501;49.926;8.404;2023-05-10T13:05:34;18.50;99.90
16767;DHT22;8501;49.926;8.404;2023-05-10T13:07:59;18.50;99.90
16767;DHT22;8501;49.926;8.404;2023-05-10T13:10:25;18.40;99.90
16767;DHT22;8501;49.926;8.404;2023-05-10T13:12:51;18.30;99.90
16767;DHT22;8501;49.926;8.404;2023-05-10T13:15:17;18.40;99.90
16767;DHT22;8501;49.926;8.404;2023-05-10T13:17:42;18.40;99.90
16767;DHT22;8501;49.926;8.404;2023-05-10T13:20:09;18.30;99.90
16767;DHT22;8501;49.926;8.404;2023-05-10T13:22:35;18.40;99.90
16767;DHT22;8501;49.926;8.404;2023-05-10T13:25:01;18.50;99.90
16767;DHT22;8501;49.926;8.404;2023-05-10T13:27:26;18.60;99.90
16767;DHT22;8501;49.926;8.404;2023-05-10T13:29:52;18.70;99.90
16767;DHT22;8501;49.926;8.404;2023-05-10T13:32:17;18.80;99.90
16767;DHT22;8501;49.926;8.404;2023-05-10T13:34:43;18.90;99.90
16767;DHT22;8501;49.926;8.404;2023-05-10T13:37:09;19.00;99.90
16767;DHT22;8501;49.926;8.404;2023-05-10T13:39:34;19.10;99.90
16767;DHT22;8501;49.926;8.404;2023-05-10T13:42:02;19.20;99.90
16767;DHT22;8501;49.926;8.404;2023-05-10T13:44:28;19.30;99.90
16767;DHT22;8501;49.926;8.404;2023-05-10T13:46:53;19.20;99.90
16767;DHT22;8501;49.926;8.404;2023-05-10T13:49:19;19.30;99.90
16767;DHT22;8501;49.926;8.404;2023-05-10T13:51:45;19.40;99.90
16767;DHT22;8501;49.926;8.404;2023-05-10T13:54:10;19.30;99.90
16767;DHT22;8501;49.926;8.404;2023-05-10T13:56:36;19.40;99.90
16767;DHT22;8501;49.926;8.404;2023-05-10T13:59:01;19.30;99.90
16767;DHT22;8501;49.926;8.404;2023-05-10T14:01:27;19.30;99.90
16767;DHT22;8501;49.926;8.404;2023-05-10T14:03:52;19.30;99.90
16767;DHT22;8501;49.926;8.404;2023-05-10T14:06:18;19.10;99.90
16767;DHT22;8501;49.926;8.404;2023-05-10T14:08:44;19.10;99.90
16767;DHT22;8501;49.926;8.404;2023-05-10T14:11:10;19.10;99.90
16767;DHT22;8501;49.926;8.404;2023-05-10T14:13:35;19.00;99.90
16767;DHT22;8501;49.926;8.404;2023-05-10T14:16:01;19.00;99.90
16767;DHT22;8501;49.926;8.404;2023-05-10T14:18:29;19.00;99.90
16767;DHT22;8501;49.926;8.404;2023-05-10T14:20:55;19.00;99.90
16767;DHT22;8501;49.926;8.404;2023-05-10T14:23:22;19.00;99.90
16767;DHT22;8501;49.926;8.404;2023-05-10T14:25:51;18.90;99.90
16767;DHT22;8501;49.926;8.404;2023-05-10T14:28:17;18.90;99.90
16767;DHT22;8501;49.926;8.404;2023-05-10T14:30:44;18.90;99.90
16767;DHT22;8501;49.926;8.404;2023-05-10T14:33:10;18.90;99.90
16767;DHT22;8501;49.926;8.404;2023-05-10T14:35:35;18.90;99.90
16767;DHT22;8501;49.926;8.404;2023-05-10T14:38:02;18.80;99.90
16767;DHT22;8501;49.926;8.404;2023-05-10T14:40:29;18.80;99.90
16767;DHT22;8501;49.926;8.404;2023-05-10T14:42:55;18.80;99.90
16767;DHT22;8501;49.926;8.404;2023-05-10T14:45:22;18.70;99.90
16767;DHT22;8501;49.926;8.404;2023-05-10T14:47:47;18.70;99.90
16767;DHT22;8501;49.926;8.404;2023-05-10T14:50:13;18.70;99.90
16767;DHT22;8501;49.926;8.404;2023-05-10T14:52:39;18.70;99.90
16767;DHT22;8501;49.926;8.404;2023-05-10T14:55:05;18.60;99.90
16767;DHT22;8501;49.926;8.404;2023-05-10T14:57:31;18.70;99.90
16767;DHT22;8501;49.926;8.404;2023-05-10T14:59:57;18.70;99.90
16767;DHT22;8501;49.926;8.404;2023-05-10T15:02:23;18.90;99.90
16767;DHT22;8501;49.926;8.404;2023-05-10T15:04:48;18.90;99.90
16767;DHT22;8501;49.926;8.404;2023-05-10T15:07:14;18.90;99.90
16767;DHT22;8501;49.926;8.404;2023-05-10T15:09:41;18.90;99.90
16767;DHT22;8501;49.926;8.404;2023-05-10T15:12:07;18.80;99.90
16767;DHT22;8501;49.926;8.404;2023-05-10T15:14:32;18.80;99.90
16767;DHT22;8501;49.926;8.404;2023-05-10T15:16:58;18.70;99.90
16767;DHT22;8501;49.926;8.404;2023-05-10T15:19:24;18.70;99.90
16767;DHT22;8501;49.926;8.404;2023-05-10T15:21:50;18.80;99.90
16767;DHT22;8501;49.926;8.404;2023-05-10T15:24:15;18.70;99.90
16767;DHT22;8501;49.926;8.404;2023-05-10T15:26:41;18.70;99.90
16767;DHT22;8501;49.926;8.404;2023-05-10T15:29:06;18.60;99.90
16767;DHT22;8501;49.926;8.404;2023-05-10T15:31:32;18.60;99.90
16767;DHT22;8501;49.926;8.404;2023-05-10T15:34:00;18.70;99.90
16767;DHT22;8501;49.926;8.404;2023-05-10T15:36:26;18.70;99.90
16767;DHT22;8501;49.926;8.404;2023-05-10T15:38:52;18.70;99.90
16767;DHT22;8501;49.926;8.404;2023-05-10T15:41:18;18.60;99.90
16767;DHT22;8501;49.926;8.404;2023-05-10T15:43:44;18.60;99.90
16767;DHT22;8501;49.926;8.404;2023-05-10T15:46:09;18.60;99.90
16767;DHT22;8501;49.926;8.404;2023-05-10T15:48:35;18.70;99.90
16767;DHT22;8501;49.926;8.404;2023-05-10T15:51:00;18.70;99.90
16767;DHT22;8501;49.926;8.404;2023-05-10T15:53:26;18.70;99.90
16767;DHT22;8501;49.926;8.404;2023-05-10T15:55:52;18.70;99.90
16767;DHT22;8501;49.926;8.404;2023-05-10T15:58:18;18.70;99.90
16767;DHT22;8501;49.926;8.404;2023-05-10T16:00:43;18.70;99.90